createdAt,value
2022-10-01T00:00:02.083Z,3
2022-10-01T00:02:02.214Z,3
2022-10-01T00:03:02.154Z,2
2022-10-01T00:04:02.092Z,4
2022-10-01T00:05:02.103Z,3
2022-10-01T00:06:02.103Z,3
2022-10-01T00:07:02.227Z,3
2022-10-01T00:08:02.092Z,5
2022-10-01T00:09:02.089Z,3
2022-10-01T00:10:02.102Z,3
2022-10-01T00:11:02.094Z,2
2022-10-01T00:12:02.104Z,4
2022-10-01T00:13:02.096Z,2
2022-10-01T00:14:02.114Z,3
2022-10-01T00:15:05.964Z,3
2022-10-01T00:16:02.102Z,4
2022-10-01T00:17:02.236Z,3
2022-10-01T00:18:02.097Z,4
2022-10-01T00:19:02.094Z,4
2022-10-01T00:20:02.365Z,3
2022-10-01T00:21:02.105Z,2
2022-10-01T00:22:02.126Z,3
2022-10-01T00:23:02.101Z,2
2022-10-01T00:24:02.090Z,4
2022-10-01T00:26:02.104Z,4
2022-10-01T00:27:02.096Z,3
2022-10-01T00:28:02.163Z,3
2022-10-01T00:29:02.132Z,2
2022-10-01T00:30:02.091Z,4
2022-10-01T00:32:02.268Z,3
2022-10-01T00:33:02.081Z,3
2022-10-01T00:34:02.087Z,4
2022-10-01T00:35:02.112Z,3
2022-10-01T00:36:02.096Z,5
2022-10-01T00:37:02.096Z,4
2022-10-01T00:38:02.092Z,3
2022-10-01T00:39:02.128Z,3
2022-10-01T00:40:02.090Z,4
2022-10-01T00:41:02.097Z,3
2022-10-01T00:42:02.339Z,4
2022-10-01T00:43:02.084Z,3
2022-10-01T00:44:02.079Z,3
2022-10-01T00:45:02.090Z,3
2022-10-01T00:46:02.182Z,3
2022-10-01T00:47:02.098Z,4
2022-10-01T00:48:02.109Z,4
2022-10-01T00:49:02.091Z,3
2022-10-01T00:50:02.102Z,3
2022-10-01T00:51:02.086Z,3
2022-10-01T00:52:02.094Z,4
2022-10-01T00:54:02.088Z,4
2022-10-01T00:55:02.086Z,4
2022-10-01T00:56:02.097Z,4
2022-10-01T00:57:02.088Z,4
2022-10-01T00:58:02.109Z,4
2022-10-01T00:59:02.093Z,5
2022-10-01T01:00:02.136Z,3
2022-10-01T01:01:02.172Z,4
2022-10-01T01:02:02.160Z,4
2022-10-01T01:03:02.090Z,3
2022-10-01T01:04:02.097Z,3
2022-10-01T01:05:02.094Z,3
2022-10-01T01:06:02.099Z,4
2022-10-01T01:07:02.109Z,4
2022-10-01T01:08:02.104Z,3
2022-10-01T01:09:02.095Z,5
2022-10-01T01:10:02.106Z,3
2022-10-01T01:11:02.092Z,3
2022-10-01T01:12:02.087Z,5
2022-10-01T01:13:02.105Z,3
2022-10-01T01:14:02.097Z,3
2022-10-01T01:15:02.086Z,4
2022-10-01T01:16:02.184Z,4
2022-10-01T01:17:02.135Z,5
2022-10-01T01:18:02.117Z,3
2022-10-01T01:19:02.089Z,4
2022-10-01T01:20:02.114Z,3
2022-10-01T01:21:02.102Z,3
2022-10-01T01:22:02.127Z,4
2022-10-01T01:23:02.093Z,4
2022-10-01T01:24:02.096Z,3
2022-10-01T01:25:02.112Z,3
2022-10-01T01:26:02.102Z,5
2022-10-01T01:27:02.094Z,5
2022-10-01T01:28:02.179Z,4
2022-10-01T01:29:02.098Z,4
2022-10-01T01:30:02.099Z,4
2022-10-01T01:31:02.187Z,4
2022-10-01T01:32:02.150Z,4
2022-10-01T01:33:02.103Z,4
2022-10-01T01:34:02.094Z,5
2022-10-01T01:35:02.107Z,4
2022-10-01T01:36:02.106Z,5
2022-10-01T01:37:02.109Z,4
2022-10-01T01:38:02.104Z,4
2022-10-01T01:39:02.096Z,5
2022-10-01T01:40:02.114Z,6
2022-10-01T01:41:02.107Z,4
2022-10-01T01:42:02.123Z,5
2022-10-01T01:43:02.094Z,3
2022-10-01T01:44:02.099Z,4
2022-10-01T01:45:02.098Z,5
2022-10-01T01:46:02.225Z,4
2022-10-01T01:47:02.099Z,4
2022-10-01T01:48:02.103Z,5
2022-10-01T01:49:02.117Z,4
2022-10-01T01:50:02.121Z,4
2022-10-01T01:51:02.151Z,5
2022-10-01T01:52:02.107Z,3
2022-10-01T01:53:02.110Z,4
2022-10-01T01:54:02.110Z,5
2022-10-01T01:55:02.111Z,6
2022-10-01T01:56:02.107Z,6
2022-10-01T01:57:02.128Z,3
2022-10-01T01:58:02.141Z,6
2022-10-01T01:59:02.113Z,6
2022-10-01T02:00:02.103Z,4
2022-10-01T02:01:02.115Z,6
2022-10-01T02:02:02.314Z,4
2022-10-01T02:03:02.249Z,4
2022-10-01T02:04:02.093Z,4
2022-10-01T02:05:02.107Z,4
2022-10-01T02:06:02.106Z,3
2022-10-01T02:07:02.125Z,5
2022-10-01T02:08:02.093Z,3
2022-10-01T02:09:02.106Z,4
2022-10-01T02:10:02.121Z,4
2022-10-01T02:11:02.099Z,4
2022-10-01T02:12:02.091Z,3
2022-10-01T02:13:02.101Z,3
2022-10-01T02:14:02.101Z,4
2022-10-01T02:15:02.104Z,4
2022-10-01T02:16:02.215Z,7
2022-10-01T02:17:02.135Z,6
2022-10-01T02:18:02.100Z,3
2022-10-01T02:19:02.239Z,4
2022-10-01T02:20:02.117Z,4
2022-10-01T02:21:02.113Z,3
2022-10-01T02:22:02.131Z,3
2022-10-01T02:23:02.107Z,5
2022-10-01T02:24:02.096Z,4
2022-10-01T02:25:02.118Z,4
2022-10-01T02:26:02.089Z,5
2022-10-01T02:27:02.120Z,3
2022-10-01T02:28:02.180Z,3
2022-10-01T02:29:02.122Z,4
2022-10-01T02:31:02.246Z,3
2022-10-01T02:32:02.166Z,3
2022-10-01T02:33:02.157Z,4
2022-10-01T02:34:02.117Z,3
2022-10-01T02:35:02.107Z,3
2022-10-01T02:36:02.096Z,4
2022-10-01T02:37:02.136Z,4
2022-10-01T02:38:02.098Z,3
2022-10-01T02:39:02.100Z,4
2022-10-01T02:40:02.135Z,3
2022-10-01T02:41:02.116Z,4
2022-10-01T02:42:02.130Z,3
2022-10-01T02:43:02.105Z,4
2022-10-01T02:44:02.144Z,4
2022-10-01T02:45:02.112Z,3
2022-10-01T02:46:02.182Z,3
2022-10-01T02:47:02.143Z,7
2022-10-01T02:48:02.128Z,4
2022-10-01T02:49:02.129Z,6
2022-10-01T02:50:02.111Z,4
2022-10-01T02:51:02.108Z,4
2022-10-01T02:52:02.155Z,4
2022-10-01T02:53:02.105Z,4
2022-10-01T02:54:02.137Z,4
2022-10-01T02:55:02.130Z,5
2022-10-01T02:56:02.107Z,4
2022-10-01T02:57:02.116Z,4
2022-10-01T02:58:02.102Z,4
2022-10-01T02:59:02.100Z,3
2022-10-01T03:00:02.111Z,4
2022-10-01T03:01:02.125Z,3
2022-10-01T03:02:02.216Z,3
2022-10-01T03:03:02.111Z,5
2022-10-01T03:04:02.199Z,3
2022-10-01T03:05:02.094Z,3
2022-10-01T03:06:02.104Z,3
2022-10-01T03:07:02.135Z,5
2022-10-01T03:08:02.105Z,3
2022-10-01T03:09:02.132Z,4
2022-10-01T03:10:02.127Z,4
2022-10-01T03:11:02.118Z,4
2022-10-01T03:13:02.120Z,5
2022-10-01T03:14:02.110Z,3
2022-10-01T03:15:02.102Z,4
2022-10-01T03:16:02.176Z,6
2022-10-01T03:17:02.124Z,3
2022-10-01T03:18:02.110Z,3
2022-10-01T03:19:02.099Z,3
2022-10-01T03:20:02.138Z,3
2022-10-01T03:21:02.123Z,4
2022-10-01T03:22:02.134Z,3
2022-10-01T03:23:02.108Z,4
2022-10-01T03:24:02.122Z,3
2022-10-01T03:25:02.107Z,4
2022-10-01T03:26:02.093Z,5
2022-10-01T03:27:02.137Z,5
2022-10-01T03:28:02.198Z,4
2022-10-01T03:29:02.106Z,4
2022-10-01T03:30:02.127Z,4
2022-10-01T03:31:02.197Z,4
2022-10-01T03:32:02.130Z,5
2022-10-01T03:33:02.175Z,4
2022-10-01T03:34:02.109Z,3
2022-10-01T03:35:02.152Z,5
2022-10-01T03:36:02.110Z,3
2022-10-01T03:37:02.137Z,3
2022-10-01T03:38:02.113Z,4
2022-10-01T03:39:02.101Z,3
2022-10-01T03:40:02.138Z,3
2022-10-01T03:41:02.124Z,3
2022-10-01T03:42:02.130Z,4
2022-10-01T03:43:02.110Z,4
2022-10-01T03:44:02.108Z,3
2022-10-01T03:45:02.110Z,3
2022-10-01T03:46:02.244Z,3
2022-10-01T03:47:02.158Z,5
2022-10-01T03:48:02.143Z,4
2022-10-01T03:49:02.114Z,3
2022-10-01T03:50:02.114Z,5
2022-10-01T03:51:02.111Z,4
2022-10-01T03:52:02.153Z,3
2022-10-01T03:53:02.113Z,4
2022-10-01T03:54:02.140Z,3
2022-10-01T03:55:02.115Z,5
2022-10-01T03:56:02.125Z,3
2022-10-01T03:57:02.116Z,3
2022-10-01T03:58:02.099Z,3
2022-10-01T03:59:02.122Z,6
2022-10-01T04:00:02.103Z,4
2022-10-01T04:01:02.108Z,4
2022-10-01T04:02:02.313Z,4
2022-10-01T04:03:02.218Z,3
2022-10-01T04:04:02.127Z,5
2022-10-01T04:05:02.103Z,3
2022-10-01T04:07:02.159Z,3
2022-10-01T04:09:02.114Z,3
2022-10-01T04:10:02.112Z,4
2022-10-01T04:11:02.128Z,4
2022-10-01T04:12:02.122Z,3
2022-10-01T04:13:02.127Z,3
2022-10-01T04:14:02.115Z,3
2022-10-01T04:15:02.122Z,4
2022-10-01T04:16:02.213Z,4
2022-10-01T04:17:02.221Z,5
2022-10-01T04:18:02.146Z,2
2022-10-01T04:19:02.272Z,4
2022-10-01T04:20:02.122Z,3
2022-10-01T04:21:02.104Z,4
2022-10-01T04:22:02.185Z,4
2022-10-01T04:23:02.139Z,3
2022-10-01T04:24:02.120Z,3
2022-10-01T04:25:02.112Z,3
2022-10-01T04:26:02.128Z,5
2022-10-01T04:27:02.292Z,2
2022-10-01T04:28:02.176Z,3
2022-10-01T04:29:02.108Z,3
2022-10-01T04:30:02.145Z,2
2022-10-01T04:31:02.123Z,3
2022-10-01T04:32:02.141Z,3
2022-10-01T04:33:02.121Z,4
2022-10-01T04:34:02.111Z,3
2022-10-01T04:35:02.109Z,3
2022-10-01T04:36:02.111Z,3
2022-10-01T04:37:02.159Z,4
2022-10-01T04:38:02.117Z,2
2022-10-01T04:39:03.053Z,2
2022-10-01T04:40:02.119Z,2
2022-10-01T04:41:02.109Z,3
2022-10-01T04:42:02.143Z,2
2022-10-01T04:43:02.106Z,2
2022-10-01T04:44:02.116Z,3
2022-10-01T04:45:02.109Z,2
2022-10-01T04:46:02.110Z,2
2022-10-01T04:47:02.200Z,2
2022-10-01T04:48:02.102Z,3
2022-10-01T04:49:02.122Z,2
2022-10-01T04:50:02.121Z,3
2022-10-01T04:51:02.105Z,2
2022-10-01T04:52:02.170Z,3
2022-10-01T04:53:02.148Z,3
2022-10-01T04:54:02.118Z,1
2022-10-01T04:55:02.118Z,2
2022-10-01T04:56:02.113Z,1
2022-10-01T04:57:02.160Z,2
2022-10-01T04:58:02.123Z,2
2022-10-01T04:59:02.133Z,2
2022-10-01T05:00:02.110Z,1
2022-10-01T05:02:02.178Z,2
2022-10-01T05:03:02.134Z,1
2022-10-01T05:04:02.115Z,2
2022-10-01T05:05:02.113Z,1
2022-10-01T05:06:02.112Z,2
2022-10-01T05:07:02.144Z,2
2022-10-01T05:08:02.112Z,1
2022-10-01T05:09:02.140Z,1
2022-10-01T05:10:02.115Z,1
2022-10-01T05:11:02.111Z,1
2022-10-01T05:12:02.128Z,4
2022-10-01T05:13:02.120Z,1
2022-10-01T05:14:02.125Z,2
2022-10-01T05:15:02.110Z,1
2022-10-01T05:16:02.176Z,1
2022-10-01T05:17:02.143Z,1
2022-10-01T05:18:02.117Z,1
2022-10-01T05:19:02.108Z,1
2022-10-01T05:20:02.103Z,1
2022-10-01T05:21:02.137Z,1
2022-10-01T05:22:02.171Z,2
2022-10-01T05:23:02.117Z,2
2022-10-01T05:24:02.138Z,1
2022-10-01T05:25:02.105Z,1
2022-10-01T05:26:02.119Z,1
2022-10-01T05:27:02.128Z,2
2022-10-01T05:28:02.194Z,1
2022-10-01T05:29:02.107Z,1
2022-10-01T05:30:02.130Z,2
2022-10-01T05:31:02.256Z,1
2022-10-01T05:32:02.162Z,1
2022-10-01T05:33:02.123Z,1
2022-10-01T05:34:02.111Z,1
2022-10-01T05:35:02.110Z,1
2022-10-01T05:36:02.121Z,1
2022-10-01T05:37:02.134Z,1
2022-10-01T05:38:02.129Z,1
2022-10-01T05:39:02.126Z,1
2022-10-01T05:40:02.123Z,1
2022-10-01T05:41:02.118Z,1
2022-10-01T05:42:06.192Z,1
2022-10-01T05:43:02.127Z,2
2022-10-01T05:44:02.104Z,1
2022-10-01T05:45:02.105Z,1
2022-10-01T05:46:02.293Z,1
2022-10-01T05:48:02.142Z,2
2022-10-01T05:49:02.113Z,1
2022-10-01T05:50:02.154Z,1
2022-10-01T05:51:02.130Z,1
2022-10-01T05:52:02.125Z,1
2022-10-01T05:53:02.156Z,1
2022-10-01T05:54:02.114Z,1
2022-10-01T05:55:02.144Z,1
2022-10-01T05:56:02.111Z,1
2022-10-01T05:57:02.131Z,1
2022-10-01T05:58:02.127Z,1
2022-10-01T05:59:02.114Z,1
2022-10-01T06:00:02.163Z,1
2022-10-01T06:01:02.125Z,1
2022-10-01T06:02:02.294Z,1
2022-10-01T06:03:02.260Z,1
2022-10-01T06:04:02.127Z,0
2022-10-01T06:05:02.147Z,1
2022-10-01T06:06:02.107Z,2
2022-10-01T06:07:02.176Z,2
2022-10-01T06:08:02.119Z,1
2022-10-01T06:09:02.142Z,1
2022-10-01T06:10:02.115Z,1
2022-10-01T06:11:02.112Z,1
2022-10-01T06:12:02.117Z,0
2022-10-01T06:13:02.175Z,0
2022-10-01T06:14:02.125Z,4
2022-10-01T06:15:02.108Z,3
2022-10-01T06:16:02.163Z,1
2022-10-01T06:17:02.114Z,1
2022-10-01T06:18:02.130Z,1
2022-10-01T06:19:02.112Z,1
2022-10-01T06:20:02.114Z,1
2022-10-01T06:21:02.135Z,1
2022-10-01T06:22:02.130Z,1
2022-10-01T06:23:02.113Z,1
2022-10-01T06:24:02.118Z,1
2022-10-01T06:25:02.109Z,1
2022-10-01T06:26:02.120Z,1
2022-10-01T06:27:02.129Z,2
2022-10-01T06:28:02.189Z,1
2022-10-01T06:29:02.113Z,1
2022-10-01T06:30:02.112Z,0
2022-10-01T06:31:02.122Z,0
2022-10-01T06:32:02.163Z,1
2022-10-01T06:33:02.129Z,1
2022-10-01T06:34:02.123Z,1
2022-10-01T06:35:02.125Z,1
2022-10-01T06:36:02.132Z,1
2022-10-01T06:37:02.138Z,1
2022-10-01T06:38:02.130Z,1
2022-10-01T06:39:02.137Z,1
2022-10-01T06:40:02.134Z,1
2022-10-01T06:41:02.188Z,3
2022-10-01T06:42:02.129Z,1
2022-10-01T06:43:02.125Z,1
2022-10-01T06:44:02.133Z,1
2022-10-01T06:45:02.108Z,1
2022-10-01T06:46:02.160Z,0
2022-10-01T06:47:02.125Z,1
2022-10-01T06:48:02.127Z,1
2022-10-01T06:49:02.112Z,1
2022-10-01T06:50:02.127Z,1
2022-10-01T06:51:02.125Z,1
2022-10-01T06:52:02.137Z,1
2022-10-01T06:53:02.185Z,0
2022-10-01T06:54:02.129Z,1
2022-10-01T06:55:02.144Z,1
2022-10-01T06:57:02.109Z,1
2022-10-01T06:58:02.140Z,2
2022-10-01T06:59:02.127Z,1
2022-10-01T07:00:02.109Z,1
2022-10-01T07:01:02.294Z,1
2022-10-01T07:02:02.182Z,1
2022-10-01T07:03:02.143Z,1
2022-10-01T07:04:02.118Z,2
2022-10-01T07:05:02.119Z,18
2022-10-01T07:06:02.143Z,30
2022-10-01T07:07:02.127Z,22
2022-10-01T07:08:02.131Z,13
2022-10-01T07:09:02.121Z,6
2022-10-01T07:10:02.127Z,2
2022-10-01T07:11:02.134Z,1
2022-10-01T07:12:02.171Z,1
2022-10-01T07:13:02.132Z,1
2022-10-01T07:14:02.146Z,1
2022-10-01T07:15:02.124Z,1
2022-10-01T07:16:02.165Z,1
2022-10-01T07:17:02.136Z,1
2022-10-01T07:18:02.130Z,1
2022-10-01T07:19:02.129Z,1
2022-10-01T07:20:02.113Z,2
2022-10-01T07:21:02.128Z,2
2022-10-01T07:22:02.130Z,2
2022-10-01T07:23:02.152Z,1
2022-10-01T07:24:02.117Z,1
2022-10-01T07:25:02.130Z,3
2022-10-01T07:26:02.121Z,3
2022-10-01T07:27:07.119Z,3
2022-10-01T07:28:02.184Z,3
2022-10-01T07:29:02.122Z,3
2022-10-01T07:30:02.138Z,3
2022-10-01T07:31:02.118Z,2
2022-10-01T07:33:02.135Z,1
2022-10-01T07:34:02.140Z,1
2022-10-01T07:35:02.112Z,1
2022-10-01T07:36:02.113Z,1
2022-10-01T07:37:02.130Z,1
2022-10-01T07:38:02.139Z,1
2022-10-01T07:39:02.127Z,1
2022-10-01T07:40:06.704Z,1
2022-10-01T07:41:02.136Z,1
2022-10-01T07:42:02.149Z,1
2022-10-01T07:43:02.170Z,1
2022-10-01T07:44:02.122Z,1
2022-10-01T07:45:02.127Z,2
2022-10-01T07:46:02.261Z,1
2022-10-01T07:47:02.124Z,1
2022-10-01T07:48:02.138Z,1
2022-10-01T07:49:02.123Z,2
2022-10-01T07:50:02.120Z,1
2022-10-01T07:51:02.130Z,1
2022-10-01T07:52:02.130Z,1
2022-10-01T07:53:02.161Z,1
2022-10-01T07:54:02.148Z,1
2022-10-01T07:55:02.140Z,1
2022-10-01T07:56:02.129Z,1
2022-10-01T07:57:02.144Z,1
2022-10-01T07:58:02.185Z,1
2022-10-01T07:59:02.120Z,1
2022-10-01T08:00:02.129Z,1
2022-10-01T08:01:02.210Z,2
2022-10-01T08:02:02.187Z,1
2022-10-01T08:03:02.152Z,1
2022-10-01T08:04:02.141Z,1
2022-10-01T08:05:02.135Z,2
2022-10-01T08:06:02.137Z,1
2022-10-01T08:07:02.136Z,1
2022-10-01T08:08:02.161Z,3
2022-10-01T08:09:02.138Z,1
2022-10-01T08:10:02.136Z,1
2022-10-01T08:11:02.145Z,1
2022-10-01T08:12:02.127Z,2
2022-10-01T08:13:02.140Z,1
2022-10-01T08:14:02.165Z,1
2022-10-01T08:15:02.134Z,1
2022-10-01T08:16:02.124Z,2
2022-10-01T08:17:02.310Z,1
2022-10-01T08:18:02.152Z,2
2022-10-01T08:19:02.132Z,2
2022-10-01T08:20:02.142Z,1
2022-10-01T08:21:02.134Z,1
2022-10-01T08:22:02.132Z,2
2022-10-01T08:23:02.181Z,2
2022-10-01T08:24:02.125Z,1
2022-10-01T08:26:02.123Z,2
2022-10-01T08:27:02.117Z,1
2022-10-01T08:28:02.246Z,1
2022-10-01T08:29:02.137Z,1
2022-10-01T08:30:02.146Z,1
2022-10-01T08:31:02.138Z,1
2022-10-01T08:32:02.143Z,1
2022-10-01T08:33:02.162Z,1
2022-10-01T08:34:02.125Z,3
2022-10-01T08:35:02.139Z,2
2022-10-01T08:36:02.120Z,2
2022-10-01T08:37:02.123Z,1
2022-10-01T08:38:02.165Z,1
2022-10-01T08:39:02.131Z,1
2022-10-01T08:40:02.140Z,3
2022-10-01T08:41:02.138Z,1
2022-10-01T08:42:02.140Z,2
2022-10-01T08:43:02.126Z,1
2022-10-01T08:44:02.127Z,1
2022-10-01T08:45:02.178Z,1
2022-10-01T08:46:02.243Z,1
2022-10-01T08:47:02.150Z,1
2022-10-01T08:48:02.179Z,1
2022-10-01T08:49:02.138Z,0
2022-10-01T08:50:02.138Z,2
2022-10-01T08:51:02.144Z,1
2022-10-01T08:52:02.126Z,1
2022-10-01T08:53:02.140Z,1
2022-10-01T08:54:02.129Z,1
2022-10-01T08:55:02.143Z,2
2022-10-01T08:56:02.141Z,0
2022-10-01T08:57:02.151Z,1
2022-10-01T08:58:02.134Z,2
2022-10-01T08:59:02.148Z,1
2022-10-01T09:00:02.166Z,1
2022-10-01T09:01:02.179Z,1
2022-10-01T09:03:02.162Z,2
2022-10-01T09:05:02.539Z,1
2022-10-01T09:06:02.151Z,1
2022-10-01T09:07:02.145Z,0
2022-10-01T09:08:02.129Z,3
2022-10-01T09:09:02.166Z,0
2022-10-01T09:10:02.143Z,1
2022-10-01T09:11:02.159Z,1
2022-10-01T09:12:02.125Z,1
2022-10-01T09:13:02.205Z,0
2022-10-01T09:14:02.138Z,1
2022-10-01T09:15:02.145Z,0
2022-10-01T09:16:02.229Z,1
2022-10-01T09:17:02.138Z,0
2022-10-01T09:18:02.175Z,1
2022-10-01T09:19:02.137Z,0
2022-10-01T09:20:02.155Z,0
2022-10-01T09:21:02.128Z,1
2022-10-01T09:22:02.150Z,1
2022-10-01T09:23:02.161Z,1
2022-10-01T09:24:02.139Z,1
2022-10-01T09:25:02.157Z,1
2022-10-01T09:26:02.131Z,1
2022-10-01T09:27:02.164Z,0
2022-10-01T09:28:02.248Z,1
2022-10-01T09:29:02.152Z,2
2022-10-01T09:30:02.149Z,1
2022-10-01T09:32:02.238Z,1
2022-10-01T09:34:02.133Z,1
2022-10-01T09:35:04.453Z,2
2022-10-01T09:36:02.136Z,1
2022-10-01T09:37:02.136Z,1
2022-10-01T09:38:02.139Z,1
2022-10-01T09:39:02.148Z,1
2022-10-01T09:40:02.168Z,2
2022-10-01T09:41:02.204Z,1
2022-10-01T09:42:02.172Z,1
2022-10-01T09:43:02.124Z,2
2022-10-01T09:44:02.149Z,1
2022-10-01T09:45:02.134Z,1
2022-10-01T09:47:02.157Z,2
2022-10-01T09:48:02.136Z,2
2022-10-01T09:49:02.128Z,2
2022-10-01T09:50:02.162Z,1
2022-10-01T09:51:02.166Z,1
2022-10-01T09:52:02.263Z,0
2022-10-01T09:53:02.145Z,2
2022-10-01T09:54:02.143Z,1
2022-10-01T09:55:02.159Z,1
2022-10-01T09:56:02.128Z,1
2022-10-01T09:57:02.142Z,1
2022-10-01T09:58:02.156Z,1
2022-10-01T09:59:02.140Z,2
2022-10-01T10:00:02.145Z,2
2022-10-01T10:01:02.133Z,2
2022-10-01T10:02:02.420Z,1
2022-10-01T10:03:02.320Z,3
2022-10-01T10:04:02.199Z,1
2022-10-01T10:05:02.140Z,2
2022-10-01T10:07:02.161Z,3
2022-10-01T10:08:02.143Z,2
2022-10-01T10:09:02.183Z,3
2022-10-01T10:10:02.144Z,3
2022-10-01T10:11:02.157Z,3
2022-10-01T10:12:02.145Z,3
2022-10-01T10:13:02.142Z,2
2022-10-01T10:14:02.137Z,2
2022-10-01T10:15:02.186Z,3
2022-10-01T10:16:02.217Z,3
2022-10-01T10:18:02.178Z,2
2022-10-01T10:19:02.157Z,2
2022-10-01T10:20:02.160Z,2
2022-10-01T10:21:02.152Z,2
2022-10-01T10:22:02.164Z,2
2022-10-01T10:23:02.139Z,3
2022-10-01T10:24:02.159Z,4
2022-10-01T10:25:02.147Z,2
2022-10-01T10:26:02.150Z,1
2022-10-01T10:27:02.153Z,2
2022-10-01T10:28:02.282Z,3
2022-10-01T10:29:02.158Z,3
2022-10-01T10:30:02.163Z,2
2022-10-01T10:31:02.258Z,2
2022-10-01T10:32:02.148Z,2
2022-10-01T10:33:02.147Z,2
2022-10-01T10:34:02.148Z,2
2022-10-01T10:35:03.355Z,2
2022-10-01T10:36:02.146Z,3
2022-10-01T10:37:02.145Z,3
2022-10-01T10:38:02.148Z,3
2022-10-01T10:39:02.175Z,4
2022-10-01T10:40:02.146Z,3
2022-10-01T10:41:02.153Z,3
2022-10-01T10:42:02.190Z,4
2022-10-01T10:43:02.151Z,2
2022-10-01T10:44:02.142Z,3
2022-10-01T10:45:02.152Z,2
2022-10-01T10:46:02.218Z,2
2022-10-01T10:47:02.157Z,4
2022-10-01T10:48:02.163Z,3
2022-10-01T10:49:02.175Z,2
2022-10-01T10:50:02.209Z,4
2022-10-01T10:51:02.246Z,5
2022-10-01T10:52:02.170Z,3
2022-10-01T10:53:02.146Z,4
2022-10-01T10:54:02.152Z,4
2022-10-01T10:55:02.148Z,4
2022-10-01T10:56:02.163Z,5
2022-10-01T10:57:02.163Z,5
2022-10-01T10:58:05.062Z,5
2022-10-01T10:59:02.152Z,5
2022-10-01T11:00:02.145Z,4
2022-10-01T11:01:02.207Z,5
2022-10-01T11:02:02.334Z,6
2022-10-01T11:03:02.161Z,7
2022-10-01T11:04:02.143Z,4
2022-10-01T11:05:02.149Z,5
2022-10-01T11:06:02.145Z,6
2022-10-01T11:07:02.156Z,5
2022-10-01T11:09:02.185Z,5
2022-10-01T11:10:02.213Z,6
2022-10-01T11:11:02.150Z,5
2022-10-01T11:12:02.171Z,5
2022-10-01T11:14:02.156Z,5
2022-10-01T11:15:02.176Z,6
2022-10-01T11:16:02.221Z,7
2022-10-01T11:17:02.161Z,6
2022-10-01T11:18:02.162Z,5
2022-10-01T11:19:02.178Z,6
2022-10-01T11:20:02.194Z,6
2022-10-01T11:21:02.175Z,7
2022-10-01T11:22:02.164Z,5
2022-10-01T11:23:02.168Z,6
2022-10-01T11:24:02.165Z,5
2022-10-01T11:25:02.173Z,6
2022-10-01T11:26:02.159Z,5
2022-10-01T11:27:02.161Z,6
2022-10-01T11:28:02.258Z,6
2022-10-01T11:29:02.186Z,6
2022-10-01T11:30:02.157Z,7
2022-10-01T11:31:02.232Z,7
2022-10-01T11:32:02.152Z,5
2022-10-01T11:33:02.171Z,6
2022-10-01T11:34:02.178Z,5
2022-10-01T11:35:02.193Z,5
2022-10-01T11:36:03.023Z,6
2022-10-01T11:37:02.164Z,9
2022-10-01T11:38:02.148Z,9
2022-10-01T11:39:02.168Z,8
2022-10-01T11:40:02.178Z,9
2022-10-01T11:41:02.154Z,8
2022-10-01T11:42:02.153Z,11
2022-10-01T11:43:02.163Z,10
2022-10-01T11:44:02.178Z,13
2022-10-01T11:45:02.176Z,6
2022-10-01T11:46:02.197Z,8
2022-10-01T11:47:02.173Z,7
2022-10-01T11:48:02.161Z,6
2022-10-01T11:49:02.171Z,6
2022-10-01T11:50:02.176Z,9
2022-10-01T11:51:02.204Z,7
2022-10-01T11:52:02.154Z,9
2022-10-01T11:53:02.155Z,8
2022-10-01T11:54:02.207Z,10
2022-10-01T11:55:02.157Z,9
2022-10-01T11:56:02.162Z,6
2022-10-01T11:57:02.159Z,9
2022-10-01T11:58:02.257Z,6
2022-10-01T11:59:02.180Z,9
2022-10-01T12:00:02.238Z,8
2022-10-01T12:02:02.216Z,9
2022-10-01T12:03:02.162Z,6
2022-10-01T12:04:02.197Z,7
2022-10-01T12:05:02.157Z,7
2022-10-01T12:06:02.169Z,6
2022-10-01T12:07:02.164Z,5
2022-10-01T12:08:02.162Z,8
2022-10-01T12:09:02.194Z,5
2022-10-01T12:10:02.161Z,5
2022-10-01T12:11:02.173Z,6
2022-10-01T12:12:02.191Z,6
2022-10-01T12:13:02.175Z,7
2022-10-01T12:14:02.178Z,5
2022-10-01T12:15:06.478Z,3
2022-10-01T12:16:02.254Z,5
2022-10-01T12:17:02.150Z,5
2022-10-01T12:18:02.164Z,4
2022-10-01T12:19:02.186Z,9
2022-10-01T12:20:02.165Z,5
2022-10-01T12:21:02.199Z,5
2022-10-01T12:22:02.193Z,5
2022-10-01T12:23:02.176Z,7
2022-10-01T12:24:02.244Z,5
2022-10-01T12:25:02.186Z,4
2022-10-01T12:26:02.163Z,4
2022-10-01T12:27:02.192Z,6
2022-10-01T12:28:02.249Z,4
2022-10-01T12:30:02.185Z,5
2022-10-01T12:31:02.202Z,4
2022-10-01T12:32:02.182Z,5
2022-10-01T12:33:02.164Z,6
2022-10-01T12:34:02.165Z,3
2022-10-01T12:35:02.185Z,5
2022-10-01T12:36:02.172Z,5
2022-10-01T12:37:02.165Z,6
2022-10-01T12:38:02.165Z,5
2022-10-01T12:39:02.171Z,5
2022-10-01T12:40:02.190Z,5
2022-10-01T12:41:02.170Z,6
2022-10-01T12:42:02.178Z,6
2022-10-01T12:43:04.394Z,5
2022-10-01T12:44:02.175Z,5
2022-10-01T12:45:02.219Z,5
2022-10-01T12:46:02.209Z,6
2022-10-01T12:47:02.176Z,5
2022-10-01T12:48:02.172Z,5
2022-10-01T12:49:02.179Z,5
2022-10-01T12:50:02.190Z,6
2022-10-01T12:51:02.177Z,6
2022-10-01T12:52:02.160Z,5
2022-10-01T12:53:02.217Z,7
2022-10-01T12:54:02.188Z,8
2022-10-01T12:55:02.166Z,6
2022-10-01T12:56:02.177Z,6
2022-10-01T12:57:02.169Z,8
2022-10-01T12:58:02.170Z,8
2022-10-01T12:59:02.196Z,6
2022-10-01T13:00:02.201Z,4
2022-10-01T13:01:02.221Z,6
2022-10-01T13:02:02.236Z,7
2022-10-01T13:03:02.172Z,5
2022-10-01T13:04:03.506Z,4
2022-10-01T13:05:02.186Z,5
2022-10-01T13:06:02.175Z,5
2022-10-01T13:07:02.187Z,4
2022-10-01T13:08:02.182Z,5
2022-10-01T13:09:02.239Z,4
2022-10-01T13:10:02.183Z,4
2022-10-01T13:11:02.167Z,5
2022-10-01T13:12:02.183Z,3
2022-10-01T13:13:02.190Z,5
2022-10-01T13:14:02.183Z,3
2022-10-01T13:16:02.275Z,4
2022-10-01T13:17:02.184Z,4
2022-10-01T13:18:02.169Z,4
2022-10-01T13:19:02.187Z,3
2022-10-01T13:20:02.309Z,3
2022-10-01T13:21:02.184Z,4
2022-10-01T13:22:02.174Z,5
2022-10-01T13:23:02.188Z,3
2022-10-01T13:24:02.245Z,6
2022-10-01T13:25:02.171Z,4
2022-10-01T13:26:02.158Z,4
2022-10-01T13:27:02.184Z,4
2022-10-01T13:28:02.258Z,3
2022-10-01T13:29:02.181Z,4
2022-10-01T13:30:02.251Z,3
2022-10-01T13:31:02.274Z,4
2022-10-01T13:32:02.212Z,3
2022-10-01T13:33:02.176Z,4
2022-10-01T13:34:02.163Z,4
2022-10-01T13:35:02.278Z,4
2022-10-01T13:36:02.184Z,5
2022-10-01T13:37:02.183Z,2
2022-10-01T13:38:02.198Z,5
2022-10-01T13:39:02.208Z,4
2022-10-01T13:40:02.188Z,3
2022-10-01T13:41:02.175Z,4
2022-10-01T13:42:02.182Z,4
2022-10-01T13:43:02.172Z,5
2022-10-01T13:44:02.165Z,5
2022-10-01T13:45:02.234Z,7
2022-10-01T13:46:02.244Z,6
2022-10-01T13:47:02.174Z,6
2022-10-01T13:48:02.182Z,6
2022-10-01T13:49:02.184Z,5
2022-10-01T13:50:02.201Z,6
2022-10-01T13:51:02.184Z,6
2022-10-01T13:52:02.188Z,6
2022-10-01T13:53:02.174Z,5
2022-10-01T13:54:02.206Z,6
2022-10-01T13:55:02.244Z,7
2022-10-01T13:56:02.179Z,7
2022-10-01T13:58:02.175Z,6
2022-10-01T13:59:02.210Z,7
2022-10-01T14:00:02.233Z,8
2022-10-01T14:01:02.278Z,6
2022-10-01T14:02:02.307Z,6
2022-10-01T14:03:02.252Z,6
2022-10-01T14:06:02.188Z,8
2022-10-01T14:07:08.753Z,7
2022-10-01T14:08:02.175Z,5
2022-10-01T14:09:08.756Z,6
2022-10-01T14:10:02.206Z,5
2022-10-01T14:11:02.189Z,4
2022-10-01T14:12:02.178Z,5
2022-10-01T14:13:02.181Z,4
2022-10-01T14:14:02.198Z,4
2022-10-01T14:15:02.196Z,6
2022-10-01T14:16:02.247Z,7
2022-10-01T14:17:02.184Z,8
2022-10-01T14:18:02.196Z,7
2022-10-01T14:19:02.168Z,5
2022-10-01T14:20:02.177Z,5
2022-10-01T14:21:02.187Z,5
2022-10-01T14:22:02.189Z,4
2022-10-01T14:23:02.182Z,6
2022-10-01T14:24:02.171Z,5
2022-10-01T14:25:02.174Z,5
2022-10-01T14:26:02.233Z,5
2022-10-01T14:27:02.175Z,5
2022-10-01T14:28:02.254Z,5
2022-10-01T14:29:02.184Z,6
2022-10-01T14:30:02.196Z,4
2022-10-01T14:31:02.266Z,4
2022-10-01T14:32:02.188Z,5
2022-10-01T14:33:02.177Z,5
2022-10-01T14:34:02.233Z,6
2022-10-01T14:35:02.187Z,6
2022-10-01T14:36:02.197Z,4
2022-10-01T14:37:02.183Z,6
2022-10-01T14:38:02.271Z,8
2022-10-01T14:39:02.187Z,6
2022-10-01T14:40:02.182Z,8
2022-10-01T14:41:02.192Z,7
2022-10-01T14:42:02.195Z,8
2022-10-01T14:43:02.174Z,7
2022-10-01T14:44:02.184Z,5
2022-10-01T14:45:02.178Z,5
2022-10-01T14:46:02.257Z,5
2022-10-01T14:47:02.198Z,6
2022-10-01T14:48:02.219Z,5
2022-10-01T14:49:02.183Z,7
2022-10-01T14:50:02.205Z,8
2022-10-01T14:51:02.177Z,10
2022-10-01T14:52:02.178Z,4
2022-10-01T14:53:02.188Z,7
2022-10-01T14:54:02.207Z,7
2022-10-01T14:55:02.259Z,6
2022-10-01T14:56:02.178Z,7
2022-10-01T14:57:04.880Z,8
2022-10-01T14:58:02.195Z,7
2022-10-01T14:59:02.194Z,7
2022-10-01T15:00:02.196Z,6
2022-10-01T15:01:02.187Z,6
2022-10-01T15:02:02.179Z,8
2022-10-01T15:03:02.188Z,7
2022-10-01T15:04:02.226Z,5
2022-10-01T15:05:02.282Z,7
2022-10-01T15:06:02.191Z,7
2022-10-01T15:07:02.189Z,7
2022-10-01T15:08:02.181Z,7
2022-10-01T15:09:02.188Z,9
2022-10-01T15:10:02.246Z,8
2022-10-01T15:11:02.192Z,7
2022-10-01T15:12:02.198Z,7
2022-10-01T15:13:02.198Z,10
2022-10-01T15:14:02.206Z,9